sensor_id;sensor_type;location;lat;lon;timestamp;pressure;altitude;pressure_sealevel;temperature;humidity
72961;BME280;61141;46.204;19.774;2023-02-28T00:01:01;101520.12;;;2.12;70.87
72961;BME280;61141;46.204;19.774;2023-02-28T00:04:04;101511.81;;;2.04;71.07
72961;BME280;61141;46.204;19.774;2023-02-28T00:07:06;101523.41;;;2.09;71.31
72961;BME280;61141;46.204;19.774;2023-02-28T00:10:13;101524.53;;;2.03;71.14
72961;BME280;61141;46.204;19.774;2023-02-28T00:13:16;101527.25;;;2.27;71.41
72961;BME280;61141;46.204;19.774;2023-02-28T00:16:21;101534.66;;;1.88;70.99
72961;BME280;61141;46.204;19.774;2023-02-28T00:19:24;101541.94;;;1.48;70.98
72961;BME280;61141;46.204;19.774;2023-02-28T00:22:27;101537.19;;;1.25;72.22
72961;BME280;61141;46.204;19.774;2023-02-28T00:25:30;101538.28;;;1.24;72.64
72961;BME280;61141;46.204;19.774;2023-02-28T00:28:35;101544.66;;;1.38;73.77
72961;BME280;61141;46.204;19.774;2023-02-28T00:31:38;101535.50;;;1.39;73.32
72961;BME280;61141;46.204;19.774;2023-02-28T00:34:41;101533.97;;;1.23;73.84
72961;BME280;61141;46.204;19.774;2023-02-28T00:37:44;101548.53;;;1.22;75.33
72961;BME280;61141;46.204;19.774;2023-02-28T00:40:46;101540.69;;;1.26;76.29
72961;BME280;61141;46.204;19.774;2023-02-28T00:43:49;101542.97;;;1.52;77.03
72961;BME280;61141;46.204;19.774;2023-02-28T00:46:52;101545.03;;;1.27;77.66
72961;BME280;61141;46.204;19.774;2023-02-28T00:49:59;101553.69;;;1.18;79.07
72961;BME280;61141;46.204;19.774;2023-02-28T00:53:03;101547.72;;;1.22;81.26
72961;BME280;61141;46.204;19.774;2023-02-28T00:56:05;101541.72;;;0.76;82.08
72961;BME280;61141;46.204;19.774;2023-02-28T00:59:09;101548.75;;;0.62;83.88
72961;BME280;61141;46.204;19.774;2023-02-28T01:02:13;101535.88;;;0.33;86.26
72961;BME280;61141;46.204;19.774;2023-02-28T01:05:16;101530.47;;;0.43;87.73
72961;BME280;61141;46.204;19.774;2023-02-28T01:08:20;101518.37;;;0.26;88.83
72961;BME280;61141;46.204;19.774;2023-02-28T01:11:23;101515.97;;;0.24;91.58
72961;BME280;61141;46.204;19.774;2023-02-28T01:14:27;101509.19;;;0.37;91.56
72961;BME280;61141;46.204;19.774;2023-02-28T01:17:31;101517.81;;;0.44;91.78
72961;BME280;61141;46.204;19.774;2023-02-28T01:20:38;101515.44;;;-0.13;94.11
72961;BME280;61141;46.204;19.774;2023-02-28T01:23:41;101519.22;;;-0.09;95.33
72961;BME280;61141;46.204;19.774;2023-02-28T01:26:45;101507.91;;;-0.01;95.54
72961;BME280;61141;46.204;19.774;2023-02-28T01:29:48;101503.84;;;0.02;95.35
72961;BME280;61141;46.204;19.774;2023-02-28T01:32:50;101514.87;;;0.25;95.16
72961;BME280;61141;46.204;19.774;2023-02-28T01:36:10;101511.13;;;0.06;96.50
72961;BME280;61141;46.204;19.774;2023-02-28T01:39:13;101515.94;;;0.34;95.78
72961;BME280;61141;46.204;19.774;2023-02-28T01:42:17;101507.63;;;0.16;95.78
72961;BME280;61141;46.204;19.774;2023-02-28T01:45:24;101508.97;;;-0.27;97.21
72961;BME280;61141;46.204;19.774;2023-02-28T01:48:31;101510.84;;;-0.03;96.60
72961;BME280;61141;46.204;19.774;2023-02-28T01:51:46;101510.28;;;0.26;96.52
72961;BME280;61141;46.204;19.774;2023-02-28T01:54:58;101518.94;;;-0.08;96.39
72961;BME280;61141;46.204;19.774;2023-02-28T01:58:04;101517.56;;;0.25;97.30
72961;BME280;61141;46.204;19.774;2023-02-28T02:01:08;101519.75;;;-0.17;97.96
72961;BME280;61141;46.204;19.774;2023-02-28T02:04:11;101513.56;;;-0.18;98.49
72961;BME280;61141;46.204;19.774;2023-02-28T02:07:16;101494.13;;;-0.65;99.00
72961;BME280;61141;46.204;19.774;2023-02-28T02:10:42;101507.38;;;-0.23;100.00
72961;BME280;61141;46.204;19.774;2023-02-28T02:17:15;101492.28;;;-0.39;99.12
72961;BME280;61141;46.204;19.774;2023-02-28T02:20:32;101496.81;;;-0.65;99.56
72961;BME280;61141;46.204;19.774;2023-02-28T02:34:39;101490.38;;;-0.64;99.26
72961;BME280;61141;46.204;19.774;2023-02-28T02:41:06;101485.56;;;-0.37;98.96
72961;BME280;61141;46.204;19.774;2023-02-28T02:47:18;101489.56;;;-0.49;99.75
72961;BME280;61141;46.204;19.774;2023-02-28T02:50:30;101477.75;;;0.02;97.89
72961;BME280;61141;46.204;19.774;2023-02-28T02:53:40;101484.19;;;0.16;97.31
72961;BME280;61141;46.204;19.774;2023-02-28T02:56:47;101483.16;;;-0.33;98.38
72961;BME280;61141;46.204;19.774;2023-02-28T02:59:51;101492.50;;;-0.66;99.15
72961;BME280;61141;46.204;19.774;2023-02-28T03:02:56;101481.47;;;-0.75;99.83
72961;BME280;61141;46.204;19.774;2023-02-28T03:06:00;101477.41;;;-0.82;100.00
72961;BME280;61141;46.204;19.774;2023-02-28T03:09:04;101472.62;;;-0.15;99.75
72961;BME280;61141;46.204;19.774;2023-02-28T03:12:11;101465.34;;;-0.49;99.36
72961;BME280;61141;46.204;19.774;2023-02-28T03:15:27;101472.31;;;-0.79;100.00
72961;BME280;61141;46.204;19.774;2023-02-28T03:19:03;101463.16;;;-0.83;100.00
72961;BME280;61141;46.204;19.774;2023-02-28T03:25:56;101478.28;;;-0.46;99.54
72961;BME280;61141;46.204;19.774;2023-02-28T03:29:32;101491.19;;;-0.43;98.92
72961;BME280;61141;46.204;19.774;2023-02-28T03:32:40;101487.44;;;-0.37;99.11
72961;BME280;61141;46.204;19.774;2023-02-28T03:35:51;101481.78;;;-0.06;97.86
72961;BME280;61141;46.204;19.774;2023-02-28T03:39:01;101479.91;;;-0.15;98.05
72961;BME280;61141;46.204;19.774;2023-02-28T03:42:14;101489.31;;;-0.33;97.85
72961;BME280;61141;46.204;19.774;2023-02-28T03:45:29;101485.28;;;0.05;97.18
72961;BME280;61141;46.204;19.774;2023-02-28T03:48:42;101478.28;;;-0.26;97.62
72961;BME280;61141;46.204;19.774;2023-02-28T03:51:47;101490.34;;;0.37;96.88
72961;BME280;61141;46.204;19.774;2023-02-28T03:54:55;101487.44;;;-0.22;97.34
72961;BME280;61141;46.204;19.774;2023-02-28T03:58:13;101489.06;;;-0.11;96.85
72961;BME280;61141;46.204;19.774;2023-02-28T04:01:25;101485.28;;;-0.25;98.23
72961;BME280;61141;46.204;19.774;2023-02-28T04:04:31;101488.50;;;-0.13;98.26
72961;BME280;61141;46.204;19.774;2023-02-28T04:07:34;101474.50;;;-0.15;97.35
72961;BME280;61141;46.204;19.774;2023-02-28T04:10:37;101471.25;;;0.03;97.59
72961;BME280;61141;46.204;19.774;2023-02-28T04:13:41;101477.75;;;-0.18;97.57
72961;BME280;61141;46.204;19.774;2023-02-28T04:16:44;101470.19;;;-0.56;99.04
72961;BME280;61141;46.204;19.774;2023-02-28T04:19:47;101481.25;;;-0.13;99.11
72961;BME280;61141;46.204;19.774;2023-02-28T04:22:50;101492.56;;;-0.26;99.07
72961;BME280;61141;46.204;19.774;2023-02-28T04:25:55;101486.88;;;-0.19;98.78
72961;BME280;61141;46.204;19.774;2023-02-28T04:28:59;101486.62;;;-0.58;100.00
72961;BME280;61141;46.204;19.774;2023-02-28T04:32:02;101486.09;;;-0.40;99.56
72961;BME280;61141;46.204;19.774;2023-02-28T04:35:06;101495.25;;;-0.31;98.84
72961;BME280;61141;46.204;19.774;2023-02-28T04:38:09;101493.09;;;-0.34;99.40
72961;BME280;61141;46.204;19.774;2023-02-28T04:41:13;101493.34;;;0.05;98.13
72961;BME280;61141;46.204;19.774;2023-02-28T04:44:16;101484.75;;;-0.32;99.15
72961;BME280;61141;46.204;19.774;2023-02-28T04:47:19;101503.88;;;-0.04;98.73
72961;BME280;61141;46.204;19.774;2023-02-28T04:50:22;101501.16;;;-0.04;98.06
72961;BME280;61141;46.204;19.774;2023-02-28T04:53:25;101503.59;;;-0.37;98.31
72961;BME280;61141;46.204;19.774;2023-02-28T04:56:28;101501.72;;;-0.12;98.26
72961;BME280;61141;46.204;19.774;2023-02-28T04:59:31;101511.13;;;-0.19;99.23
72961;BME280;61141;46.204;19.774;2023-02-28T05:02:34;101516.75;;;0.15;98.05
72961;BME280;61141;46.204;19.774;2023-02-28T05:05:38;101515.69;;;-0.25;98.41
72961;BME280;61141;46.204;19.774;2023-02-28T05:08:41;101513.00;;;0.16;96.96
72961;BME280;61141;46.204;19.774;2023-02-28T05:11:44;101509.22;;;-0.59;98.46
72961;BME280;61141;46.204;19.774;2023-02-28T05:14:46;101510.03;;;-0.48;98.81
72961;BME280;61141;46.204;19.774;2023-02-28T05:17:50;101512.75;;;-0.03;98.65
72961;BME280;61141;46.204;19.774;2023-02-28T05:20:52;101517.84;;;-0.32;99.30
72961;BME280;61141;46.204;19.774;2023-02-28T05:23:57;101507.81;;;-0.72;99.84
72961;BME280;61141;46.204;19.774;2023-02-28T05:27:00;101505.47;;;-0.43;99.79
72961;BME280;61141;46.204;19.774;2023-02-28T05:30:05;101523.19;;;-0.52;99.52
72961;BME280;61141;46.204;19.774;2023-02-28T05:33:11;101524.00;;;-0.41;99.90
72961;BME280;61141;46.204;19.774;2023-02-28T05:36:14;101526.72;;;-0.41;99.17
72961;BME280;61141;46.204;19.774;2023-02-28T05:39:17;101518.09;;;-0.58;98.53
72961;BME280;61141;46.204;19.774;2023-02-28T05:42:20;101536.94;;;-0.43;99.35
72961;BME280;61141;46.204;19.774;2023-02-28T05:45:22;101523.50;;;0.32;97.88
72961;BME280;61141;46.204;19.774;2023-02-28T05:48:26;101527.25;;;0.31;95.97
72961;BME280;61141;46.204;19.774;2023-02-28T05:51:29;101535.88;;;0.28;96.30
72961;BME280;61141;46.204;19.774;2023-02-28T05:54:32;101532.94;;;0.15;97.64
72961;BME280;61141;46.204;19.774;2023-02-28T05:57:35;101531.34;;;-0.12;97.62
72961;BME280;61141;46.204;19.774;2023-02-28T06:00:39;101530.50;;;-0.42;98.66
72961;BME280;61141;46.204;19.774;2023-02-28T06:03:43;101496.59;;;-0.33;98.36
72961;BME280;61141;46.204;19.774;2023-02-28T06:06:47;101543.38;;;0.62;96.25
72961;BME280;61141;46.204;19.774;2023-02-28T06:09:51;101548.81;;;-0.29;97.22
72961;BME280;61141;46.204;19.774;2023-02-28T06:12:54;101550.19;;;-0.02;98.07
72961;BME280;61141;46.204;19.774;2023-02-28T06:16:00;101551.38;;;0.87;94.61
72961;BME280;61141;46.204;19.774;2023-02-28T06:19:04;101549.59;;;0.52;95.74
72961;BME280;61141;46.204;19.774;2023-02-28T06:22:07;101551.50;;;0.46;95.27
72961;BME280;61141;46.204;19.774;2023-02-28T06:25:10;101556.06;;;0.31;95.35
72961;BME280;61141;46.204;19.774;2023-02-28T06:28:13;101547.47;;;0.44;95.24
72961;BME280;61141;46.204;19.774;2023-02-28T06:31:17;101550.72;;;-0.15;96.64
72961;BME280;61141;46.204;19.774;2023-02-28T06:34:20;101550.97;;;0.24;95.79
72961;BME280;61141;46.204;19.774;2023-02-28T06:37:23;101558.50;;;-0.13;97.48
72961;BME280;61141;46.204;19.774;2023-02-28T06:40:29;101561.59;;;1.05;94.58
72961;BME280;61141;46.204;19.774;2023-02-28T06:43:39;101560.03;;;0.79;94.59
72961;BME280;61141;46.204;19.774;2023-02-28T06:46:44;101563.91;;;0.22;94.29
72961;BME280;61141;46.204;19.774;2023-02-28T06:49:47;101560.41;;;-0.04;97.04
72961;BME280;61141;46.204;19.774;2023-02-28T06:52:50;101548.78;;;0.51;95.56
72961;BME280;61141;46.204;19.774;2023-02-28T06:55:56;101565.47;;;0.64;93.46
72961;BME280;61141;46.204;19.774;2023-02-28T06:58:59;101571.19;;;1.26;91.85
72961;BME280;61141;46.204;19.774;2023-02-28T07:02:02;101569.75;;;0.85;93.12
72961;BME280;61141;46.204;19.774;2023-02-28T07:05:06;101574.59;;;0.88;92.91
72961;BME280;61141;46.204;19.774;2023-02-28T07:08:09;101571.41;;;0.55;92.56
72961;BME280;61141;46.204;19.774;2023-02-28T07:11:12;101565.94;;;0.91;92.08
72961;BME280;61141;46.204;19.774;2023-02-28T07:14:14;101575.47;;;0.28;93.87
72961;BME280;61141;46.204;19.774;2023-02-28T07:17:17;101572.50;;;0.49;93.94
72961;BME280;61141;46.204;19.774;2023-02-28T07:20:20;101557.97;;;0.40;93.94
72961;BME280;61141;46.204;19.774;2023-02-28T07:23:23;101574.09;;;0.71;92.58
72961;BME280;61141;46.204;19.774;2023-02-28T07:26:26;101570.22;;;1.02;91.64
72961;BME280;61141;46.204;19.774;2023-02-28T07:29:29;101581.03;;;0.92;90.43
72961;BME280;61141;46.204;19.774;2023-02-28T07:32:32;101586.03;;;1.29;90.16
72961;BME280;61141;46.204;19.774;2023-02-28T07:35:35;101583.44;;;1.62;89.37
72961;BME280;61141;46.204;19.774;2023-02-28T07:38:38;101588.44;;;2.18;88.73
72961;BME280;61141;46.204;19.774;2023-02-28T07:41:41;101579.03;;;1.71;87.69
72961;BME280;61141;46.204;19.774;2023-02-28T07:44:46;101587.31;;;1.46;87.78
72961;BME280;61141;46.204;19.774;2023-02-28T07:47:49;101583.72;;;2.00;86.49
72961;BME280;61141;46.204;19.774;2023-02-28T07:50:56;101585.75;;;1.30;88.00
72961;BME280;61141;46.204;19.774;2023-02-28T07:53:59;101571.81;;;2.01;86.52
72961;BME280;61141;46.204;19.774;2023-02-28T07:57:02;101585.06;;;1.58;86.81
72961;BME280;61141;46.204;19.774;2023-02-28T08:00:08;101586.88;;;1.19;87.76
72961;BME280;61141;46.204;19.774;2023-02-28T08:03:19;101581.38;;;1.39;86.86
72961;BME280;61141;46.204;19.774;2023-02-28T08:06:24;101579.06;;;1.66;87.18
72961;BME280;61141;46.204;19.774;2023-02-28T08:09:28;101583.06;;;1.79;86.26
72961;BME280;61141;46.204;19.774;2023-02-28T08:12:32;101586.94;;;2.02;86.00
72961;BME280;61141;46.204;19.774;2023-02-28T08:15:35;101585.38;;;1.96;83.24
72961;BME280;61141;46.204;19.774;2023-02-28T08:18:39;101568.09;;;2.25;85.04
72961;BME280;61141;46.204;19.774;2023-02-28T08:21:42;101593.47;;;1.96;85.05
72961;BME280;61141;46.204;19.774;2023-02-28T08:24:45;101585.13;;;1.48;86.21
72961;BME280;61141;46.204;19.774;2023-02-28T08:27:50;101584.12;;;2.17;87.23
72961;BME280;61141;46.204;19.774;2023-02-28T08:30:54;101586.69;;;2.61;85.67
72961;BME280;61141;46.204;19.774;2023-02-28T08:33:58;101587.84;;;2.26;84.78
72961;BME280;61141;46.204;19.774;2023-02-28T08:37:01;101577.78;;;1.98;84.79
72961;BME280;61141;46.204;19.774;2023-02-28T08:40:08;101579.53;;;2.75;84.35
72961;BME280;61141;46.204;19.774;2023-02-28T08:43:11;101592.69;;;2.29;84.25
72961;BME280;61141;46.204;19.774;2023-02-28T08:46:14;101588.00;;;2.40;82.60
72961;BME280;61141;46.204;19.774;2023-02-28T08:49:17;101589.09;;;2.67;84.87
72961;BME280;61141;46.204;19.774;2023-02-28T08:52:21;101585.13;;;2.55;83.92
72961;BME280;61141;46.204;19.774;2023-02-28T08:55:24;101586.00;;;2.50;83.74
72961;BME280;61141;46.204;19.774;2023-02-28T08:58:28;101593.19;;;2.31;83.57
72961;BME280;61141;46.204;19.774;2023-02-28T09:01:31;101581.19;;;2.71;82.84
72961;BME280;61141;46.204;19.774;2023-02-28T09:04:35;101589.03;;;2.72;82.91
72961;BME280;61141;46.204;19.774;2023-02-28T09:07:38;101581.00;;;3.15;81.33
72961;BME280;61141;46.204;19.774;2023-02-28T09:10:41;101596.88;;;2.45;81.79
72961;BME280;61141;46.204;19.774;2023-02-28T09:13:44;101596.31;;;2.43;84.71
72961;BME280;61141;46.204;19.774;2023-02-28T09:16:47;101593.50;;;2.82;82.89
72961;BME280;61141;46.204;19.774;2023-02-28T09:19:50;101595.13;;;1.92;84.35
72961;BME280;61141;46.204;19.774;2023-02-28T09:22:53;101597.38;;;2.47;83.16
72961;BME280;61141;46.204;19.774;2023-02-28T09:25:55;101589.31;;;2.08;84.58
72961;BME280;61141;46.204;19.774;2023-02-28T09:28:59;101573.72;;;2.86;83.71
72961;BME280;61141;46.204;19.774;2023-02-28T09:32:02;101582.63;;;3.34;81.03
72961;BME280;61141;46.204;19.774;2023-02-28T09:35:06;101588.34;;;2.85;82.46
72961;BME280;61141;46.204;19.774;2023-02-28T09:38:09;101589.50;;;3.03;82.04
72961;BME280;61141;46.204;19.774;2023-02-28T09:41:21;101580.22;;;2.85;82.90
72961;BME280;61141;46.204;19.774;2023-02-28T09:44:44;101585.63;;;2.85;81.78
72961;BME280;61141;46.204;19.774;2023-02-28T09:47:50;101573.97;;;3.32;82.42
72961;BME280;61141;46.204;19.774;2023-02-28T09:51:11;101558.03;;;3.31;83.95
72961;BME280;61141;46.204;19.774;2023-02-28T09:54:27;101574.44;;;2.73;83.83
72961;BME280;61141;46.204;19.774;2023-02-28T09:57:36;101577.00;;;3.31;83.06
72961;BME280;61141;46.204;19.774;2023-02-28T10:00:41;101577.25;;;3.53;82.32
72961;BME280;61141;46.204;19.774;2023-02-28T10:04:15;101578.31;;;3.33;81.83
72961;BME280;61141;46.204;19.774;2023-02-28T10:10:35;101594.56;;;3.10;83.60
72961;BME280;61141;46.204;19.774;2023-02-28T10:13:53;101588.09;;;2.82;84.47
72961;BME280;61141;46.204;19.774;2023-02-28T10:17:16;101585.66;;;3.51;82.94
72961;BME280;61141;46.204;19.774;2023-02-28T10:20:24;101588.69;;;3.03;83.06
72961;BME280;61141;46.204;19.774;2023-02-28T10:23:35;101588.81;;;3.77;82.44
72961;BME280;61141;46.204;19.774;2023-02-28T10:26:38;101594.53;;;3.94;83.45
72961;BME280;61141;46.204;19.774;2023-02-28T10:29:47;101589.47;;;3.27;83.37
72961;BME280;61141;46.204;19.774;2023-02-28T10:32:51;101595.31;;;3.58;82.78
72961;BME280;61141;46.204;19.774;2023-02-28T10:35:57;101577.16;;;3.39;81.59
72961;BME280;61141;46.204;19.774;2023-02-28T10:38:59;101594.00;;;3.74;82.80
72961;BME280;61141;46.204;19.774;2023-02-28T10:42:03;101587.34;;;3.47;83.43
72961;BME280;61141;46.204;19.774;2023-02-28T10:45:15;101589.81;;;3.81;83.22
72961;BME280;61141;46.204;19.774;2023-02-28T10:51:23;101584.41;;;3.81;84.26
72961;BME280;61141;46.204;19.774;2023-02-28T10:54:30;101580.59;;;4.01;81.39
72961;BME280;61141;46.204;19.774;2023-02-28T10:57:33;101567.84;;;4.01;81.40
72961;BME280;61141;46.204;19.774;2023-02-28T11:00:37;101555.78;;;3.38;82.77
72961;BME280;61141;46.204;19.774;2023-02-28T11:03:40;101569.50;;;3.84;83.68
72961;BME280;61141;46.204;19.774;2023-02-28T11:06:43;101568.38;;;3.85;82.27
72961;BME280;61141;46.204;19.774;2023-02-28T11:09:48;101566.16;;;3.07;86.10
72961;BME280;61141;46.204;19.774;2023-02-28T11:12:56;101559.09;;;2.87;86.05
72961;BME280;61141;46.204;19.774;2023-02-28T11:16:05;101559.28;;;2.72;87.67
72961;BME280;61141;46.204;19.774;2023-02-28T11:19:19;101541.87;;;3.44;87.35
72961;BME280;61141;46.204;19.774;2023-02-28T11:22:28;101563.22;;;3.27;86.85
72961;BME280;61141;46.204;19.774;2023-02-28T11:25:36;101563.25;;;3.83;85.82
72961;BME280;61141;46.204;19.774;2023-02-28T11:28:41;101556.22;;;3.82;85.42
72961;BME280;61141;46.204;19.774;2023-02-28T11:38:14;101556.91;;;3.13;87.24
72961;BME280;61141;46.204;19.774;2023-02-28T11:45:17;101553.97;;;2.62;88.90
72961;BME280;61141;46.204;19.774;2023-02-28T11:48:36;101544.44;;;3.12;87.85
72961;BME280;61141;46.204;19.774;2023-02-28T11:55:27;101542.47;;;3.41;87.07
72961;BME280;61141;46.204;19.774;2023-02-28T12:05:14;101550.41;;;2.90;87.05
72961;BME280;61141;46.204;19.774;2023-02-28T12:08:55;101541.41;;;3.37;87.69
72961;BME280;61141;46.204;19.774;2023-02-28T12:12:23;101539.00;;;3.17;88.43
72961;BME280;61141;46.204;19.774;2023-02-28T12:19:19;101536.97;;;3.04;88.65
72961;BME280;61141;46.204;19.774;2023-02-28T12:28:49;101530.88;;;3.54;88.66
72961;BME280;61141;46.204;19.774;2023-02-28T12:32:33;101530.12;;;3.12;86.84
72961;BME280;61141;46.204;19.774;2023-02-28T12:35:53;101535.25;;;3.32;88.20
72961;BME280;61141;46.204;19.774;2023-02-28T12:42:15;101535.72;;;3.39;88.42
72961;BME280;61141;46.204;19.774;2023-02-28T12:45:23;101534.50;;;3.08;88.82
72961;BME280;61141;46.204;19.774;2023-02-28T12:48:37;101531.25;;;3.48;88.24
72961;BME280;61141;46.204;19.774;2023-02-28T12:51:44;101528.81;;;3.09;89.04
72961;BME280;61141;46.204;19.774;2023-02-28T12:54:53;101529.06;;;3.31;88.77
72961;BME280;61141;46.204;19.774;2023-02-28T13:02:02;101529.03;;;3.87;87.42
72961;BME280;61141;46.204;19.774;2023-02-28T13:12:15;101521.28;;;3.25;89.30
72961;BME280;61141;46.204;19.774;2023-02-28T13:15:25;101510.12;;;3.31;88.33
72961;BME280;61141;46.204;19.774;2023-02-28T13:18:46;101503.16;;;3.44;89.44
72961;BME280;61141;46.204;19.774;2023-02-28T13:21:51;101514.28;;;3.61;89.45
72961;BME280;61141;46.204;19.774;2023-02-28T13:24:56;101510.03;;;3.55;88.97
72961;BME280;61141;46.204;19.774;2023-02-28T13:28:09;101519.38;;;3.81;88.95
72961;BME280;61141;46.204;19.774;2023-02-28T13:31:13;101515.66;;;3.21;90.25
72961;BME280;61141;46.204;19.774;2023-02-28T13:34:16;101511.75;;;3.09;90.73
72961;BME280;61141;46.204;19.774;2023-02-28T13:40:32;101517.47;;;3.82;88.79
72961;BME280;61141;46.204;19.774;2023-02-28T13:44:05;101509.59;;;3.29;89.33
72961;BME280;61141;46.204;19.774;2023-02-28T13:47:23;101517.94;;;3.33;90.46
72961;BME280;61141;46.204;19.774;2023-02-28T13:50:32;101518.37;;;3.40;90.89
72961;BME280;61141;46.204;19.774;2023-02-28T13:54:06;101510.06;;;2.94;92.25
72961;BME280;61141;46.204;19.774;2023-02-28T14:04:14;101506.66;;;3.26;91.88
72961;BME280;61141;46.204;19.774;2023-02-28T14:07:29;101497.66;;;3.30;90.84
72961;BME280;61141;46.204;19.774;2023-02-28T14:10:44;101510.31;;;3.72;90.32
72961;BME280;61141;46.204;19.774;2023-02-28T14:13:47;101508.72;;;3.34;90.99
72961;BME280;61141;46.204;19.774;2023-02-28T14:16:51;101498.16;;;3.70;90.33
72961;BME280;61141;46.204;19.774;2023-02-28T14:19:56;101506.28;;;3.70;90.71
72961;BME280;61141;46.204;19.774;2023-02-28T14:36:37;101492.25;;;3.12;95.24
72961;BME280;61141;46.204;19.774;2023-02-28T14:39:42;101487.56;;;3.17;95.33
72961;BME280;61141;46.204;19.774;2023-02-28T14:43:04;101491.91;;;3.37;93.97
72961;BME280;61141;46.204;19.774;2023-02-28T14:46:07;101488.47;;;3.31;95.11
72961;BME280;61141;46.204;19.774;2023-02-28T14:49:18;101484.63;;;3.14;95.79
72961;BME280;61141;46.204;19.774;2023-02-28T14:52:26;101493.63;;;3.28;95.22
72961;BME280;61141;46.204;19.774;2023-02-28T14:55:35;101486.38;;;3.05;96.31
72961;BME280;61141;46.204;19.774;2023-02-28T14:58:38;101486.56;;;2.89;96.69
72961;BME280;61141;46.204;19.774;2023-02-28T15:01:41;101481.06;;;3.37;96.57
72961;BME280;61141;46.204;19.774;2023-02-28T15:04:55;101484.84;;;3.54;95.07
72961;BME280;61141;46.204;19.774;2023-02-28T15:08:12;101491.00;;;3.23;96.22
72961;BME280;61141;46.204;19.774;2023-02-28T15:11:18;101491.66;;;3.15;96.11
72961;BME280;61141;46.204;19.774;2023-02-28T15:14:22;101487.31;;;3.51;95.44
72961;BME280;61141;46.204;19.774;2023-02-28T15:17:25;101489.84;;;3.47;95.36
72961;BME280;61141;46.204;19.774;2023-02-28T15:20:28;101485.22;;;3.29;95.83
72961;BME280;61141;46.204;19.774;2023-02-28T15:23:31;101487.78;;;3.39;95.84
72961;BME280;61141;46.204;19.774;2023-02-28T15:26:40;101485.72;;;3.50;94.77
72961;BME280;61141;46.204;19.774;2023-02-28T15:29:46;101484.13;;;3.49;94.39
72961;BME280;61141;46.204;19.774;2023-02-28T15:33:05;101482.50;;;3.29;95.27
72961;BME280;61141;46.204;19.774;2023-02-28T15:36:24;101491.16;;;3.50;95.08
72961;BME280;61141;46.204;19.774;2023-02-28T15:39:31;101489.91;;;3.61;94.52
72961;BME280;61141;46.204;19.774;2023-02-28T15:42:34;101484.19;;;3.25;95.32
72961;BME280;61141;46.204;19.774;2023-02-28T15:45:41;101485.44;;;3.33;95.04
72961;BME280;61141;46.204;19.774;2023-02-28T15:48:56;101491.91;;;2.94;97.06
72961;BME280;61141;46.204;19.774;2023-02-28T15:51:59;101489.53;;;3.30;96.39
72961;BME280;61141;46.204;19.774;2023-02-28T15:55:32;101482.75;;;2.90;97.83
72961;BME280;61141;46.204;19.774;2023-02-28T15:58:35;101489.28;;;2.89;97.84
72961;BME280;61141;46.204;19.774;2023-02-28T16:01:39;101480.78;;;2.96;97.80
72961;BME280;61141;46.204;19.774;2023-02-28T16:08:12;101484.31;;;3.15;97.73
72961;BME280;61141;46.204;19.774;2023-02-28T16:11:17;101476.41;;;3.00;97.43
72961;BME280;61141;46.204;19.774;2023-02-28T16:14:25;101480.44;;;3.03;97.88
72961;BME280;61141;46.204;19.774;2023-02-28T16:17:33;101482.22;;;3.31;97.41
72961;BME280;61141;46.204;19.774;2023-02-28T16:20:36;101479.53;;;2.88;98.27
72961;BME280;61141;46.204;19.774;2023-02-28T16:23:40;101491.28;;;3.03;98.70
72961;BME280;61141;46.204;19.774;2023-02-28T16:26:46;101486.50;;;2.94;99.03
72961;BME280;61141;46.204;19.774;2023-02-28T16:29:51;101488.44;;;2.70;99.92
72961;BME280;61141;46.204;19.774;2023-02-28T16:32:55;101489.38;;;2.79;99.88
72961;BME280;61141;46.204;19.774;2023-02-28T16:35:58;101487.91;;;2.68;100.00
72961;BME280;61141;46.204;19.774;2023-02-28T16:39:01;101494.06;;;2.74;100.00
72961;BME280;61141;46.204;19.774;2023-02-28T16:42:05;101499.59;;;2.64;100.00
72961;BME280;61141;46.204;19.774;2023-02-28T16:45:22;101506.25;;;2.95;100.00
72961;BME280;61141;46.204;19.774;2023-02-28T16:48:26;101503.16;;;2.83;100.00
72961;BME280;61141;46.204;19.774;2023-02-28T16:51:28;101514.06;;;3.20;99.46
72961;BME280;61141;46.204;19.774;2023-02-28T16:54:34;101514.66;;;2.70;100.00
72961;BME280;61141;46.204;19.774;2023-02-28T16:57:37;101520.25;;;3.21;99.35
72961;BME280;61141;46.204;19.774;2023-02-28T17:00:42;101516.13;;;3.05;99.67
72961;BME280;61141;46.204;19.774;2023-02-28T17:03:46;101519.25;;;2.93;100.00
72961;BME280;61141;46.204;19.774;2023-02-28T17:06:49;101519.31;;;2.88;100.00
72961;BME280;61141;46.204;19.774;2023-02-28T17:09:53;101519.31;;;2.88;100.00
72961;BME280;61141;46.204;19.774;2023-02-28T17:12:56;101518.56;;;2.82;100.00
72961;BME280;61141;46.204;19.774;2023-02-28T17:19:27;101519.16;;;3.03;100.00
72961;BME280;61141;46.204;19.774;2023-02-28T17:22:30;101527.47;;;3.07;99.80
72961;BME280;61141;46.204;19.774;2023-02-28T17:25:33;101520.97;;;3.08;99.95
72961;BME280;61141;46.204;19.774;2023-02-28T17:28:36;101517.69;;;3.11;99.30
72961;BME280;61141;46.204;19.774;2023-02-28T17:31:39;101529.88;;;2.89;100.00
72961;BME280;61141;46.204;19.774;2023-02-28T17:34:43;101524.91;;;2.73;100.00
72961;BME280;61141;46.204;19.774;2023-02-28T17:37:46;101525.50;;;2.70;100.00
72961;BME280;61141;46.204;19.774;2023-02-28T17:40:49;101526.72;;;3.01;100.00
72961;BME280;61141;46.204;19.774;2023-02-28T17:43:52;101522.59;;;2.61;100.00
72961;BME280;61141;46.204;19.774;2023-02-28T17:46:55;101523.84;;;3.16;100.00
72961;BME280;61141;46.204;19.774;2023-02-28T17:49:59;101516.06;;;2.67;100.00
72961;BME280;61141;46.204;19.774;2023-02-28T17:53:02;101527.56;;;2.78;100.00
72961;BME280;61141;46.204;19.774;2023-02-28T17:56:12;101520.41;;;3.11;100.00
72961;BME280;61141;46.204;19.774;2023-02-28T17:59:16;101520.59;;;2.72;100.00